sensor_id;sensor_type;location;lat;lon;timestamp;pressure;altitude;pressure_sealevel;temperature;humidity
49341;BME280;35209;51.050;13.678;2022-09-09T00:03:22;99548.03;;;15.20;81.75
49341;BME280;35209;51.050;13.678;2022-09-09T00:08:38;99549.50;;;15.10;82.09
49341;BME280;35209;51.050;13.678;2022-09-09T00:13:54;99545.97;;;15.09;83.27
49341;BME280;35209;51.050;13.678;2022-09-09T00:19:17;99551.75;;;15.02;82.62
49341;BME280;35209;51.050;13.678;2022-09-09T00:29:46;99541.28;;;15.14;81.24
49341;BME280;35209;51.050;13.678;2022-09-09T00:34:56;99531.88;;;15.25;79.96
49341;BME280;35209;51.050;13.678;2022-09-09T00:40:02;99540.56;;;15.27;79.38
49341;BME280;35209;51.050;13.678;2022-09-09T00:45:23;99538.13;;;15.38;78.68
49341;BME280;35209;51.050;13.678;2022-09-09T00:50:43;99534.34;;;15.28;78.84
49341;BME280;35209;51.050;13.678;2022-09-09T00:55:54;99543.03;;;15.30;78.09
49341;BME280;35209;51.050;13.678;2022-09-09T01:01:04;99546.63;;;15.29;78.19
49341;BME280;35209;51.050;13.678;2022-09-09T01:11:42;99549.31;;;15.13;79.50
49341;BME280;35209;51.050;13.678;2022-09-09T01:16:50;99555.72;;;14.79;82.95
49341;BME280;35209;51.050;13.678;2022-09-09T01:27:26;99552.69;;;14.69;83.44
49341;BME280;35209;51.050;13.678;2022-09-09T01:32:48;99545.56;;;14.71;82.53
49341;BME280;35209;51.050;13.678;2022-09-09T01:37:50;99543.75;;;14.56;83.57
49341;BME280;35209;51.050;13.678;2022-09-09T01:42:53;99538.16;;;14.29;85.97
49341;BME280;35209;51.050;13.678;2022-09-09T01:47:55;99541.47;;;14.01;88.95
49341;BME280;35209;51.050;13.678;2022-09-09T01:53:15;99540.66;;;13.83;91.98
49341;BME280;35209;51.050;13.678;2022-09-09T01:58:22;99538.66;;;13.71;92.75
49341;BME280;35209;51.050;13.678;2022-09-09T02:03:32;99536.59;;;13.60;94.00
49341;BME280;35209;51.050;13.678;2022-09-09T02:08:47;99544.06;;;13.52;94.43
49341;BME280;35209;51.050;13.678;2022-09-09T02:13:53;99542.28;;;13.35;96.42
49341;BME280;35209;51.050;13.678;2022-09-09T02:24:14;99537.59;;;13.23;97.75
49341;BME280;35209;51.050;13.678;2022-09-09T02:29:28;99547.41;;;13.38;97.71
49341;BME280;35209;51.050;13.678;2022-09-09T02:34:36;99543.97;;;13.36;97.87
49341;BME280;35209;51.050;13.678;2022-09-09T02:39:39;99543.88;;;13.20;99.09
49341;BME280;35209;51.050;13.678;2022-09-09T02:44:45;99547.66;;;12.97;100.00
49341;BME280;35209;51.050;13.678;2022-09-09T02:55:18;99541.00;;;13.07;100.00
49341;BME280;35209;51.050;13.678;2022-09-09T03:00:26;99555.09;;;13.25;99.42
49341;BME280;35209;51.050;13.678;2022-09-09T03:05:34;99547.16;;;13.25;98.38
49341;BME280;35209;51.050;13.678;2022-09-09T03:10:36;99546.22;;;13.26;98.35
49341;BME280;35209;51.050;13.678;2022-09-09T03:15:38;99551.84;;;13.01;100.00
49341;BME280;35209;51.050;13.678;2022-09-09T03:20:43;99544.16;;;12.79;100.00
49341;BME280;35209;51.050;13.678;2022-09-09T03:25:49;99551.31;;;12.58;100.00
49341;BME280;35209;51.050;13.678;2022-09-09T03:30:58;99552.84;;;12.44;100.00
49341;BME280;35209;51.050;13.678;2022-09-09T03:36:00;99546.31;;;12.33;100.00
49341;BME280;35209;51.050;13.678;2022-09-09T03:41:04;99546.22;;;12.35;100.00
49341;BME280;35209;51.050;13.678;2022-09-09T03:46:08;99546.16;;;12.55;100.00
49341;BME280;35209;51.050;13.678;2022-09-09T03:51:10;99548.31;;;12.66;100.00
49341;BME280;35209;51.050;13.678;2022-09-09T03:56:12;99539.28;;;12.89;100.00
49341;BME280;35209;51.050;13.678;2022-09-09T04:01:14;99538.97;;;12.59;100.00
49341;BME280;35209;51.050;13.678;2022-09-09T04:06:19;99546.91;;;12.40;100.00
49341;BME280;35209;51.050;13.678;2022-09-09T04:11:22;99547.34;;;12.31;100.00
49341;BME280;35209;51.050;13.678;2022-09-09T04:16:27;99555.25;;;12.31;100.00
49341;BME280;35209;51.050;13.678;2022-09-09T04:21:29;99560.75;;;12.44;100.00
49341;BME280;35209;51.050;13.678;2022-09-09T04:26:30;99560.50;;;12.86;100.00
49341;BME280;35209;51.050;13.678;2022-09-09T04:31:34;99561.94;;;12.93;100.00
49341;BME280;35209;51.050;13.678;2022-09-09T04:36:36;99553.28;;;12.72;100.00
49341;BME280;35209;51.050;13.678;2022-09-09T04:41:39;99566.28;;;12.58;100.00
49341;BME280;35209;51.050;13.678;2022-09-09T04:46:44;99567.56;;;12.49;100.00
49341;BME280;35209;51.050;13.678;2022-09-09T04:51:49;99563.25;;;12.66;100.00
49341;BME280;35209;51.050;13.678;2022-09-09T04:56:52;99562.97;;;12.72;100.00
49341;BME280;35209;51.050;13.678;2022-09-09T05:01:53;99562.66;;;12.78;100.00
49341;BME280;35209;51.050;13.678;2022-09-09T05:06:56;99563.91;;;12.88;100.00
49341;BME280;35209;51.050;13.678;2022-09-09T05:11:58;99570.13;;;12.87;100.00
49341;BME280;35209;51.050;13.678;2022-09-09T05:17:05;99567.53;;;13.22;100.00
49341;BME280;35209;51.050;13.678;2022-09-09T05:22:10;99565.50;;;13.28;100.00
49341;BME280;35209;51.050;13.678;2022-09-09T05:27:19;99574.56;;;13.23;100.00
49341;BME280;35209;51.050;13.678;2022-09-09T05:32:22;99588.09;;;13.34;100.00
49341;BME280;35209;51.050;13.678;2022-09-09T05:37:25;99592.75;;;13.46;100.00
49341;BME280;35209;51.050;13.678;2022-09-09T05:42:31;99595.91;;;13.70;100.00
49341;BME280;35209;51.050;13.678;2022-09-09T05:47:35;99598.78;;;13.83;100.00
49341;BME280;35209;51.050;13.678;2022-09-09T05:52:42;99603.59;;;13.92;100.00
49341;BME280;35209;51.050;13.678;2022-09-09T05:57:49;99611.47;;;14.09;100.00
49341;BME280;35209;51.050;13.678;2022-09-09T06:02:54;99604.97;;;14.32;100.00
49341;BME280;35209;51.050;13.678;2022-09-09T06:07:56;99604.47;;;14.42;98.20
49341;BME280;35209;51.050;13.678;2022-09-09T06:12:59;99598.38;;;14.73;93.98
49341;BME280;35209;51.050;13.678;2022-09-09T06:18:01;99600.50;;;14.66;96.36
49341;BME280;35209;51.050;13.678;2022-09-09T06:23:10;99610.56;;;15.07;92.94
49341;BME280;35209;51.050;13.678;2022-09-09T06:28:15;99604.72;;;15.16;92.82
49341;BME280;35209;51.050;13.678;2022-09-09T06:33:20;99602.78;;;15.04;91.69
49341;BME280;35209;51.050;13.678;2022-09-09T06:38:23;99608.75;;;15.07;93.66
49341;BME280;35209;51.050;13.678;2022-09-09T06:43:27;99599.81;;;14.94;94.17
49341;BME280;35209;51.050;13.678;2022-09-09T06:48:30;99608.41;;;15.13;94.31
49341;BME280;35209;51.050;13.678;2022-09-09T06:53:33;99605.81;;;15.58;89.01
49341;BME280;35209;51.050;13.678;2022-09-09T06:58:45;99599.66;;;15.73;90.30
49341;BME280;35209;51.050;13.678;2022-09-09T07:03:55;99602.25;;;16.03;87.00
49341;BME280;35209;51.050;13.678;2022-09-09T07:09:06;99605.00;;;16.16;89.01
49341;BME280;35209;51.050;13.678;2022-09-09T07:14:08;99596.91;;;16.75;83.26
49341;BME280;35209;51.050;13.678;2022-09-09T07:19:11;99591.50;;;17.03;81.58
49341;BME280;35209;51.050;13.678;2022-09-09T07:24:14;99601.53;;;17.12;79.81
49341;BME280;35209;51.050;13.678;2022-09-09T07:29:17;99599.38;;;17.32;81.94
49341;BME280;35209;51.050;13.678;2022-09-09T07:34:22;99599.72;;;17.80;80.71
49341;BME280;35209;51.050;13.678;2022-09-09T07:39:25;99595.13;;;18.07;78.93
49341;BME280;35209;51.050;13.678;2022-09-09T07:44:28;99600.53;;;18.44;76.95
49341;BME280;35209;51.050;13.678;2022-09-09T07:49:37;99593.16;;;18.73;74.79
49341;BME280;35209;51.050;13.678;2022-09-09T07:54:41;99603.97;;;18.83;73.73
49341;BME280;35209;51.050;13.678;2022-09-09T07:59:44;99603.28;;;18.55;74.88
49341;BME280;35209;51.050;13.678;2022-09-09T08:04:47;99618.81;;;18.98;74.09
49341;BME280;35209;51.050;13.678;2022-09-09T08:09:51;99613.78;;;18.82;78.27
49341;BME280;35209;51.050;13.678;2022-09-09T08:14:57;99619.25;;;19.05;76.66
49341;BME280;35209;51.050;13.678;2022-09-09T08:20:03;99616.31;;;18.84;76.60
49341;BME280;35209;51.050;13.678;2022-09-09T08:25:07;99615.66;;;18.93;80.84
49341;BME280;35209;51.050;13.678;2022-09-09T08:30:11;99624.97;;;19.35;77.79
49341;BME280;35209;51.050;13.678;2022-09-09T08:35:14;99622.59;;;19.44;79.83
49341;BME280;35209;51.050;13.678;2022-09-09T08:40:22;99626.59;;;19.49;78.95
49341;BME280;35209;51.050;13.678;2022-09-09T08:45:45;99627.69;;;19.71;77.76
49341;BME280;35209;51.050;13.678;2022-09-09T08:50:51;99629.69;;;20.02;75.94
49341;BME280;35209;51.050;13.678;2022-09-09T08:56:02;99623.56;;;20.69;66.27
49341;BME280;35209;51.050;13.678;2022-09-09T09:11:43;99630.84;;;20.56;64.23
49341;BME280;35209;51.050;13.678;2022-09-09T09:16:56;99639.72;;;20.68;60.28
49341;BME280;35209;51.050;13.678;2022-09-09T09:27:13;99651.78;;;20.15;63.73
49341;BME280;35209;51.050;13.678;2022-09-09T09:32:20;99644.69;;;19.92;65.26
49341;BME280;35209;51.050;13.678;2022-09-09T09:37:31;99651.41;;;20.09;65.87
49341;BME280;35209;51.050;13.678;2022-09-09T09:42:34;99645.25;;;20.42;69.77
49341;BME280;35209;51.050;13.678;2022-09-09T09:47:35;99647.28;;;21.06;66.79
49341;BME280;35209;51.050;13.678;2022-09-09T09:53:00;99635.97;;;21.78;61.02
49341;BME280;35209;51.050;13.678;2022-09-09T09:58:06;99636.06;;;22.29;57.44
49341;BME280;35209;51.050;13.678;2022-09-09T10:03:24;99631.06;;;22.86;55.08
49341;BME280;35209;51.050;13.678;2022-09-09T10:08:28;99623.72;;;23.67;54.88
49341;BME280;35209;51.050;13.678;2022-09-09T10:13:47;99621.72;;;23.98;54.26
49341;BME280;35209;51.050;13.678;2022-09-09T10:19:01;99626.53;;;24.51;52.42
49341;BME280;35209;51.050;13.678;2022-09-09T10:35:03;99623.81;;;25.52;48.97
49341;BME280;35209;51.050;13.678;2022-09-09T10:45:23;99602.56;;;24.40;51.32
49341;BME280;35209;51.050;13.678;2022-09-09T10:50:45;99595.19;;;24.97;52.52
49341;BME280;35209;51.050;13.678;2022-09-09T10:56:10;99597.69;;;24.06;53.66
49341;BME280;35209;51.050;13.678;2022-09-09T11:01:40;99586.56;;;23.04;55.46
49341;BME280;35209;51.050;13.678;2022-09-09T11:06:47;99592.44;;;22.48;57.95
49341;BME280;35209;51.050;13.678;2022-09-09T11:11:54;99582.72;;;22.16;60.42
49341;BME280;35209;51.050;13.678;2022-09-09T11:16:59;99580.34;;;21.92;59.97
49341;BME280;35209;51.050;13.678;2022-09-09T11:22:04;99590.25;;;22.02;59.96
49341;BME280;35209;51.050;13.678;2022-09-09T11:27:23;99579.50;;;21.92;64.09
49341;BME280;35209;51.050;13.678;2022-09-09T11:37:44;99585.03;;;21.79;62.30
49341;BME280;35209;51.050;13.678;2022-09-09T11:48:33;99563.63;;;22.00;62.36
49341;BME280;35209;51.050;13.678;2022-09-09T11:53:54;99569.97;;;22.30;64.92
49341;BME280;35209;51.050;13.678;2022-09-09T11:59:06;99568.06;;;23.01;60.25
49341;BME280;35209;51.050;13.678;2022-09-09T12:04:42;99566.66;;;22.97;57.97
49341;BME280;35209;51.050;13.678;2022-09-09T12:09:54;99556.94;;;22.46;59.93
49341;BME280;35209;51.050;13.678;2022-09-09T12:20:34;99551.06;;;22.22;62.70
49341;BME280;35209;51.050;13.678;2022-09-09T12:31:06;99538.94;;;21.97;63.60
49341;BME280;35209;51.050;13.678;2022-09-09T12:36:13;99544.69;;;21.92;64.27
49341;BME280;35209;51.050;13.678;2022-09-09T12:41:23;99538.84;;;22.29;62.54
49341;BME280;35209;51.050;13.678;2022-09-09T12:46:32;99524.16;;;22.83;61.66
49341;BME280;35209;51.050;13.678;2022-09-09T12:51:37;99528.38;;;22.76;60.31
49341;BME280;35209;51.050;13.678;2022-09-09T12:56:39;99526.56;;;22.76;59.79
49341;BME280;35209;51.050;13.678;2022-09-09T13:01:41;99522.25;;;22.45;59.59
49341;BME280;35209;51.050;13.678;2022-09-09T13:06:43;99504.44;;;22.24;60.39
49341;BME280;35209;51.050;13.678;2022-09-09T13:11:51;99496.25;;;22.26;60.06
49341;BME280;35209;51.050;13.678;2022-09-09T13:16:59;99489.41;;;22.42;58.12
49341;BME280;35209;51.050;13.678;2022-09-09T13:22:20;99491.50;;;22.39;57.95
49341;BME280;35209;51.050;13.678;2022-09-09T13:27:36;99496.59;;;22.52;58.11
49341;BME280;35209;51.050;13.678;2022-09-09T13:32:42;99493.06;;;22.41;57.37
49341;BME280;35209;51.050;13.678;2022-09-09T13:37:43;99487.16;;;22.48;56.29
49341;BME280;35209;51.050;13.678;2022-09-09T13:42:45;99495.38;;;22.75;56.27
49341;BME280;35209;51.050;13.678;2022-09-09T13:47:47;99499.66;;;23.07;56.99
49341;BME280;35209;51.050;13.678;2022-09-09T13:52:55;99505.41;;;22.83;55.48
49341;BME280;35209;51.050;13.678;2022-09-09T13:58:01;99508.75;;;22.65;58.37
49341;BME280;35209;51.050;13.678;2022-09-09T14:03:03;99501.78;;;22.34;59.11
49341;BME280;35209;51.050;13.678;2022-09-09T14:08:06;99496.25;;;22.26;59.88
49341;BME280;35209;51.050;13.678;2022-09-09T14:13:08;99497.94;;;22.77;57.39
49341;BME280;35209;51.050;13.678;2022-09-09T14:18:12;99501.63;;;22.95;54.71
49341;BME280;35209;51.050;13.678;2022-09-09T14:23:14;99487.97;;;22.98;56.25
49341;BME280;35209;51.050;13.678;2022-09-09T14:28:17;99485.09;;;23.19;54.98
49341;BME280;35209;51.050;13.678;2022-09-09T14:33:26;99477.50;;;23.14;54.27
49341;BME280;35209;51.050;13.678;2022-09-09T14:38:36;99467.34;;;23.08;52.53
49341;BME280;35209;51.050;13.678;2022-09-09T14:43:41;99464.94;;;23.15;51.32
49341;BME280;35209;51.050;13.678;2022-09-09T14:48:43;99466.44;;;23.37;52.55
49341;BME280;35209;51.050;13.678;2022-09-09T14:53:46;99461.25;;;23.26;53.18
49341;BME280;35209;51.050;13.678;2022-09-09T14:58:48;99461.56;;;23.03;53.56
49341;BME280;35209;51.050;13.678;2022-09-09T15:03:52;99462.41;;;22.84;53.91
49341;BME280;35209;51.050;13.678;2022-09-09T15:08:55;99475.22;;;22.81;51.03
49341;BME280;35209;51.050;13.678;2022-09-09T15:14:01;99462.41;;;22.84;46.78
49341;BME280;35209;51.050;13.678;2022-09-09T15:19:03;99455.47;;;22.82;49.48
49341;BME280;35209;51.050;13.678;2022-09-09T15:24:05;99458.56;;;22.67;51.96
49341;BME280;35209;51.050;13.678;2022-09-09T15:29:09;99465.47;;;22.80;49.56
49341;BME280;35209;51.050;13.678;2022-09-09T15:34:12;99461.97;;;22.89;49.45
49341;BME280;35209;51.050;13.678;2022-09-09T15:39:17;99478.66;;;23.02;46.36
49341;BME280;35209;51.050;13.678;2022-09-09T15:44:19;99476.50;;;22.86;48.20
49341;BME280;35209;51.050;13.678;2022-09-09T15:49:23;99468.56;;;22.65;48.97
49341;BME280;35209;51.050;13.678;2022-09-09T15:54:26;99473.50;;;22.51;50.59
49341;BME280;35209;51.050;13.678;2022-09-09T15:59:30;99462.63;;;22.42;49.54
49341;BME280;35209;51.050;13.678;2022-09-09T16:04:32;99461.78;;;22.42;52.16
49341;BME280;35209;51.050;13.678;2022-09-09T16:09:35;99455.81;;;22.19;54.77
49341;BME280;35209;51.050;13.678;2022-09-09T16:14:38;99464.28;;;22.34;55.36
49341;BME280;35209;51.050;13.678;2022-09-09T16:19:41;99463.25;;;22.15;55.66
49341;BME280;35209;51.050;13.678;2022-09-09T16:24:44;99475.22;;;21.81;57.21
49341;BME280;35209;51.050;13.678;2022-09-09T16:29:47;99476.63;;;21.54;59.02
49341;BME280;35209;51.050;13.678;2022-09-09T16:34:49;99470.19;;;21.57;61.41
49341;BME280;35209;51.050;13.678;2022-09-09T16:39:51;99478.78;;;21.60;62.08
49341;BME280;35209;51.050;13.678;2022-09-09T16:44:56;99487.91;;;21.37;64.06
49341;BME280;35209;51.050;13.678;2022-09-09T16:49:58;99497.91;;;21.24;65.32
49341;BME280;35209;51.050;13.678;2022-09-09T16:54:59;99503.25;;;21.35;65.35
49341;BME280;35209;51.050;13.678;2022-09-09T17:00:03;99503.59;;;21.30;65.27
49341;BME280;35209;51.050;13.678;2022-09-09T17:05:12;99503.00;;;21.27;64.77
49341;BME280;35209;51.050;13.678;2022-09-09T17:10:14;99500.59;;;21.24;61.51
49341;BME280;35209;51.050;13.678;2022-09-09T17:15:16;99506.00;;;21.12;58.77
49341;BME280;35209;51.050;13.678;2022-09-09T17:20:19;99515.19;;;21.20;53.91
49341;BME280;35209;51.050;13.678;2022-09-09T17:25:22;99510.09;;;20.96;53.50
49341;BME280;35209;51.050;13.678;2022-09-09T17:30:24;99516.94;;;20.77;52.57
49341;BME280;35209;51.050;13.678;2022-09-09T17:35:26;99515.78;;;20.59;52.78
49341;BME280;35209;51.050;13.678;2022-09-09T17:40:28;99530.00;;;20.26;54.60
49341;BME280;35209;51.050;13.678;2022-09-09T17:45:30;99530.56;;;19.73;56.03
49341;BME280;35209;51.050;13.678;2022-09-09T17:50:33;99541.06;;;19.52;58.10
49341;BME280;35209;51.050;13.678;2022-09-09T17:55:35;99545.19;;;19.21;60.05
49341;BME280;35209;51.050;13.678;2022-09-09T18:00:37;99548.81;;;19.20;58.45
49341;BME280;35209;51.050;13.678;2022-09-09T18:05:39;99563.06;;;19.32;59.16
49341;BME280;35209;51.050;13.678;2022-09-09T18:10:41;99575.56;;;19.42;56.80
49341;BME280;35209;51.050;13.678;2022-09-09T18:15:45;99580.88;;;19.42;55.79
49341;BME280;35209;51.050;13.678;2022-09-09T18:21:01;99583.81;;;19.39;55.84
49341;BME280;35209;51.050;13.678;2022-09-09T18:26:08;99571.28;;;19.05;57.61
49341;BME280;35209;51.050;13.678;2022-09-09T18:31:13;99563.88;;;18.73;58.25
49341;BME280;35209;51.050;13.678;2022-09-09T18:36:17;99566.22;;;18.52;60.91
49341;BME280;35209;51.050;13.678;2022-09-09T18:41:28;99575.72;;;18.44;62.83
49341;BME280;35209;51.050;13.678;2022-09-09T18:46:33;99578.94;;;18.23;61.80
49341;BME280;35209;51.050;13.678;2022-09-09T18:51:35;99587.81;;;18.11;61.86
49341;BME280;35209;51.050;13.678;2022-09-09T18:56:38;99602.25;;;17.94;62.16
49341;BME280;35209;51.050;13.678;2022-09-09T19:01:40;99598.75;;;17.94;64.52
49341;BME280;35209;51.050;13.678;2022-09-09T19:06:45;99585.88;;;17.87;67.12
49341;BME280;35209;51.050;13.678;2022-09-09T19:11:48;99594.69;;;18.01;69.69
49341;BME280;35209;51.050;13.678;2022-09-09T19:16:50;99599.09;;;18.02;71.76
49341;BME280;35209;51.050;13.678;2022-09-09T19:21:52;99600.25;;;17.85;73.27
49341;BME280;35209;51.050;13.678;2022-09-09T19:27:00;99603.06;;;17.69;74.61
49341;BME280;35209;51.050;13.678;2022-09-09T19:32:03;99606.97;;;17.51;76.74
49341;BME280;35209;51.050;13.678;2022-09-09T19:37:24;99612.38;;;17.49;77.21
49341;BME280;35209;51.050;13.678;2022-09-09T19:42:26;99615.91;;;17.62;77.76
49341;BME280;35209;51.050;13.678;2022-09-09T19:47:30;99612.28;;;17.51;77.78
49341;BME280;35209;51.050;13.678;2022-09-09T19:52:31;99611.63;;;17.47;79.14
49341;BME280;35209;51.050;13.678;2022-09-09T19:57:33;99613.78;;;17.55;78.89
49341;BME280;35209;51.050;13.678;2022-09-09T20:02:36;99614.31;;;17.60;77.71
49341;BME280;35209;51.050;13.678;2022-09-09T20:07:37;99615.69;;;17.26;79.95
49341;BME280;35209;51.050;13.678;2022-09-09T20:12:39;99619.84;;;17.30;78.46
49341;BME280;35209;51.050;13.678;2022-09-09T20:17:41;99624.19;;;17.18;80.16
49341;BME280;35209;51.050;13.678;2022-09-09T20:22:42;99632.16;;;17.18;79.84
49341;BME280;35209;51.050;13.678;2022-09-09T20:27:44;99635.91;;;17.01;82.10
49341;BME280;35209;51.050;13.678;2022-09-09T20:32:45;99631.94;;;16.94;82.08
49341;BME280;35209;51.050;13.678;2022-09-09T20:37:47;99645.47;;;17.04;82.50
49341;BME280;35209;51.050;13.678;2022-09-09T20:42:49;99644.66;;;17.16;82.36
49341;BME280;35209;51.050;13.678;2022-09-09T20:47:51;99647.25;;;17.03;83.28
49341;BME280;35209;51.050;13.678;2022-09-09T20:52:57;99641.56;;;17.09;83.84
49341;BME280;35209;51.050;13.678;2022-09-09T20:57:59;99648.53;;;16.98;85.76
49341;BME280;35209;51.050;13.678;2022-09-09T21:03:01;99654.31;;;16.90;87.21
49341;BME280;35209;51.050;13.678;2022-09-09T21:08:03;99664.75;;;16.93;86.96
49341;BME280;35209;51.050;13.678;2022-09-09T21:13:04;99661.91;;;16.96;87.29
49341;BME280;35209;51.050;13.678;2022-09-09T21:18:06;99655.44;;;17.00;88.97
49341;BME280;35209;51.050;13.678;2022-09-09T21:23:12;99664.75;;;16.93;92.71
49341;BME280;35209;51.050;13.678;2022-09-09T21:28:14;99658.13;;;17.27;91.41
49341;BME280;35209;51.050;13.678;2022-09-09T21:33:18;99650.53;;;17.21;89.49
49341;BME280;35209;51.050;13.678;2022-09-09T21:38:21;99656.16;;;17.17;90.81
49341;BME280;35209;51.050;13.678;2022-09-09T21:43:23;99660.16;;;17.09;91.37
49341;BME280;35209;51.050;13.678;2022-09-09T21:48:25;99658.41;;;16.81;93.07
49341;BME280;35209;51.050;13.678;2022-09-09T21:53:26;99658.22;;;16.70;94.18
49341;BME280;35209;51.050;13.678;2022-09-09T21:58:28;99653.41;;;16.48;94.54
49341;BME280;35209;51.050;13.678;2022-09-09T22:03:30;99650.63;;;16.50;94.56
49341;BME280;35209;51.050;13.678;2022-09-09T22:08:32;99651.38;;;16.37;95.37
49341;BME280;35209;51.050;13.678;2022-09-09T22:13:35;99646.66;;;16.57;95.36
49341;BME280;35209;51.050;13.678;2022-09-09T22:18:37;99643.06;;;16.58;94.96
49341;BME280;35209;51.050;13.678;2022-09-09T22:23:38;99641.28;;;16.44;97.14
49341;BME280;35209;51.050;13.678;2022-09-09T22:28:40;99637.84;;;16.42;96.57
49341;BME280;35209;51.050;13.678;2022-09-09T22:33:42;99630.28;;;16.22;96.32
49341;BME280;35209;51.050;13.678;2022-09-09T22:38:43;99631.03;;;16.09;96.98
49341;BME280;35209;51.050;13.678;2022-09-09T22:43:46;99633.38;;;16.00;97.58
49341;BME280;35209;51.050;13.678;2022-09-09T22:48:47;99629.97;;;15.98;97.27
49341;BME280;35209;51.050;13.678;2022-09-09T22:53:49;99628.44;;;15.94;97.19
49341;BME280;35209;51.050;13.678;2022-09-09T22:58:54;99617.94;;;16.06;97.10
49341;BME280;35209;51.050;13.678;2022-09-09T23:03:56;99614.81;;;15.85;97.81
49341;BME280;35209;51.050;13.678;2022-09-09T23:09:03;99620.41;;;16.09;95.70
49341;BME280;35209;51.050;13.678;2022-09-09T23:14:07;99620.59;;;16.06;95.60
49341;BME280;35209;51.050;13.678;2022-09-09T23:19:13;99609.13;;;15.61;96.90
49341;BME280;35209;51.050;13.678;2022-09-09T23:24:16;99611.22;;;15.56;97.15
49341;BME280;35209;51.050;13.678;2022-09-09T23:29:19;99612.97;;;15.42;97.84
49341;BME280;35209;51.050;13.678;2022-09-09T23:34:21;99608.97;;;15.34;97.54
49341;BME280;35209;51.050;13.678;2022-09-09T23:39:23;99616.16;;;15.32;96.79
49341;BME280;35209;51.050;13.678;2022-09-09T23:44:25;99612.31;;;15.22;96.77
49341;BME280;35209;51.050;13.678;2022-09-09T23:49:27;99619.88;;;15.14;96.57
49341;BME280;35209;51.050;13.678;2022-09-09T23:54:28;99624.56;;;14.93;97.88
49341;BME280;35209;51.050;13.678;2022-09-09T23:59:30;99615.94;;;14.74;98.50
